Time;durP1;ratioP1;P1;durP2;ratioP2;P2;SDS_P1;SDS_P2;PMS_P1;PMS_P2;Temp;Humidity;BMP_temperature;BMP_pressure;BME280_temperature;BME280_humidity;BME280_pressure;Samples;Min_cycle;Max_cycle;Signal;HPM_P1;HPM_P2
2023/02/21 02:15:20;;;;;;;102.85;47.58;;;;;;;6.56;100.00;101915.84;5083987;28;20131;-78
2023/02/21 02:18:08;;;;;;;98.95;47.03;;;;;;;6.55;100.00;101906.19;5086667;28;20332;-80
2023/02/21 02:21:00;;;;;;;100.40;45.35;;;;;;;6.57;100.00;101907.13;5083774;28;20028;-81
2023/02/21 02:23:43;;;;;;;100.28;47.35;;;;;;;6.53;100.00;101907.84;5076854;28;20036;-75
2023/02/21 02:26:20;;;;;;;99.85;48.40;;;;;;;6.50;100.00;101902.50;5084005;28;20107;-75
2023/02/21 02:28:48;;;;;;;100.60;47.40;;;;;;;6.51;100.00;101900.75;5085348;28;20028;-81
2023/02/21 02:31:24;;;;;;;101.72;47.63;;;;;;;6.50;100.00;101902.50;5084709;28;20040;-78
2023/02/21 02:34:19;;;;;;;102.70;47.10;;;;;;;6.50;100.00;101905.13;5084576;28;20030;-79
2023/02/21 02:36:59;;;;;;;103.25;47.88;;;;;;;6.48;100.00;101900.63;5084764;28;20081;-77
2023/02/21 02:39:31;;;;;;;109.30;49.72;;;;;;;6.47;100.00;101897.13;5083563;28;20032;-76
2023/02/21 02:42:30;;;;;;;99.35;47.10;;;;;;;6.47;100.00;101881.34;5086253;28;20028;-76
2023/02/21 02:45:02;;;;;;;105.70;46.45;;;;;;;6.47;100.00;101876.09;5086074;28;20032;-75
2023/02/21 02:47:35;;;;;;;102.00;46.40;;;;;;;6.42;100.00;101880.28;5083247;28;20020;-79
2023/02/21 02:50:02;;;;;;;106.40;47.10;;;;;;;6.43;100.00;101876.81;5082881;28;20267;-78
2023/02/21 02:52:27;;;;;;;114.60;50.50;;;;;;;6.42;100.00;101877.66;5086346;28;20483;-80
2023/02/21 02:55:01;;;;;;;115.55;50.63;;;;;;;6.39;100.00;101874.91;5083639;28;20028;-79
2023/02/21 02:57:39;;;;;;;117.05;48.60;;;;;;;6.40;100.00;101882.84;5086107;28;20024;-75
2023/02/21 03:00:07;;;;;;;117.53;48.15;;;;;;;6.39;100.00;101877.53;5082758;28;20364;-76
2023/02/21 03:03:18;;;;;;;117.32;48.88;;;;;;;6.35;100.00;101876.53;5086136;28;20077;-76
2023/02/21 03:05:51;;;;;;;117.25;48.72;;;;;;;6.34;100.00;101873.84;5074684;28;20471;-77
2023/02/21 03:08:19;;;;;;;;;;;;;;;6.39;100.00;101872.28;5084923;28;20024;-77
2023/02/21 03:10:49;;;;;;;119.88;49.05;;;;;;;6.34;100.00;101879.13;5084190;28;20404;-76
2023/02/21 03:13:21;;;;;;;122.38;48.42;;;;;;;6.32;100.00;101870.25;5084510;28;20024;-76
2023/02/21 03:15:53;;;;;;;125.27;48.93;;;;;;;6.29;100.00;101868.41;5084146;28;20082;-77
2023/02/21 03:18:43;;;;;;;127.68;50.22;;;;;;;6.27;100.00;101877.97;5083990;28;20314;-75
2023/02/21 03:21:16;;;;;;;130.43;47.85;;;;;;;6.28;100.00;101870.16;5082732;28;20136;-76
2023/02/21 03:23:42;;;;;;;;;;;;;;;6.25;100.00;101875.28;5084897;28;20030;-76
2023/02/21 03:26:10;;;;;;;126.15;47.13;;;;;;;6.26;100.00;101874.47;5082856;28;19924;-75
2023/02/21 03:28:36;;;;;;;132.85;49.97;;;;;;;6.25;100.00;101880.53;5085594;28;20043;-76
2023/02/21 03:31:06;;;;;;;131.48;48.85;;;;;;;6.25;100.00;101880.53;5082364;28;20060;-76
2023/02/21 03:33:32;;;;;;;137.70;48.80;;;;;;;6.23;100.00;101876.06;5082111;28;20044;-76
2023/02/21 03:35:59;;;;;;;131.63;47.63;;;;;;;6.26;100.00;101868.28;5085280;28;20111;-75
2023/02/21 03:38:27;;;;;;;131.57;48.75;;;;;;;6.22;100.00;101869.03;5082818;28;20024;-75
2023/02/21 03:40:53;;;;;;;143.38;50.72;;;;;;;6.21;100.00;101868.13;5084448;28;20036;-76
2023/02/21 03:43:18;;;;;;;140.73;49.42;;;;;;;6.22;100.00;101869.91;5083751;28;20442;-79
2023/02/21 03:45:44;;;;;;;146.10;52.80;;;;;;;6.22;100.00;101869.03;5083299;28;20028;-78
2023/02/21 03:48:09;;;;;;;143.35;51.85;;;;;;;6.21;100.00;101868.13;5084619;28;20059;-77
2023/02/21 03:50:34;;;;;;;152.63;53.05;;;;;;;6.21;100.00;101869.84;5081708;28;20070;-79
2023/02/21 03:53:00;;;;;;;155.90;51.53;;;;;;;6.21;100.00;101870.75;5085434;28;20043;-76
2023/02/21 03:55:25;;;;;;;138.82;48.90;;;;;;;6.22;100.00;101880.41;5082232;28;20021;-75
2023/02/21 03:57:51;;;;;;;148.27;50.63;;;;;;;6.21;100.00;101878.63;5083768;28;20029;-75
2023/02/21 04:00:16;;;;;;;147.77;51.05;;;;;;;6.21;100.00;101876.00;5082392;28;20050;-79
2023/02/21 04:02:43;;;;;;;152.63;50.83;;;;;;;6.23;100.00;101887.47;5082298;28;20172;-80
2023/02/21 04:05:08;;;;;;;159.63;51.17;;;;;;;6.21;100.00;101873.38;5084424;28;20489;-79
2023/02/21 04:07:33;;;;;;;158.88;49.50;;;;;;;6.22;100.00;101875.16;5081598;28;20029;-79
2023/02/21 04:09:59;;;;;;;151.60;50.33;;;;;;;6.21;100.00;101883.88;5084684;28;20466;-79
2023/02/21 04:12:24;;;;;;;160.60;49.80;;;;;;;6.21;100.00;101870.75;5082421;28;20475;-78
2023/02/21 04:14:51;;;;;;;154.60;49.75;;;;;;;6.23;100.00;101865.56;5083628;28;20105;-75
2023/02/21 04:17:17;;;;;;;156.48;50.33;;;;;;;6.21;100.00;101857.63;5083196;28;20032;-84
2023/02/21 04:19:42;;;;;;;157.25;49.72;;;;;;;6.15;100.00;101853.88;5082351;28;20550;-75
2023/02/21 04:22:07;;;;;;;164.82;51.10;;;;;;;6.17;100.00;101858.31;5084366;28;20081;-79
2023/02/21 04:24:33;;;;;;;169.40;51.63;;;;;;;6.17;100.00;101860.06;5081216;28;20055;-79
2023/02/21 04:26:58;;;;;;;178.48;53.22;;;;;;;6.17;100.00;101862.69;5084540;28;20036;-79
2023/02/21 04:29:24;;;;;;;169.98;51.72;;;;;;;6.14;100.00;101865.22;5080721;28;20071;-79
2023/02/21 04:31:50;;;;;;;170.90;50.58;;;;;;;6.15;100.00;101862.63;5083034;28;20181;-79
2023/02/21 04:34:15;;;;;;;169.18;50.65;;;;;;;6.13;100.00;101856.44;5083272;28;20032;-79
2023/02/21 04:36:41;;;;;;;185.55;52.88;;;;;;;6.13;100.00;101860.78;5081732;28;20031;-79
2023/02/21 04:39:07;;;;;;;188.80;54.13;;;;;;;6.13;100.00;101852.91;5084156;28;20042;-79
2023/02/21 04:41:32;;;;;;;182.40;51.88;;;;;;;6.10;100.00;101851.97;5081118;28;20062;-76
2023/02/21 04:43:58;;;;;;;186.48;51.05;;;;;;;6.09;100.00;101852.78;5084010;28;20063;-76
2023/02/21 04:46:23;;;;;;;184.90;51.90;;;;;;;6.10;100.00;101856.28;5081944;28;20039;-75
2023/02/21 04:48:50;;;;;;;166.32;50.10;;;;;;;6.11;100.00;101856.34;5082859;28;20032;-76
2023/02/21 04:51:19;;;;;;;187.73;51.10;;;;;;;6.09;100.00;101851.91;5082876;28;20027;-77
2023/02/21 04:53:48;;;;;;;184.52;51.85;;;;;;;6.09;100.00;101851.91;5082027;28;20099;-76
2023/02/21 04:56:19;;;;;;;188.55;51.50;;;;;;;6.08;100.00;101844.84;5083332;28;20089;-77
2023/02/21 04:58:45;;;;;;;188.60;51.05;;;;;;;6.07;100.00;101849.22;5082028;28;20094;-76
2023/02/21 05:01:11;;;;;;;189.57;49.47;;;;;;;6.08;100.00;101839.59;5083388;28;20044;-76
2023/02/21 05:03:37;;;;;;;198.43;51.33;;;;;;;6.07;100.00;101850.94;5079605;28;20418;-76
2023/02/21 05:06:02;;;;;;;206.18;52.03;;;;;;;6.06;100.00;101849.16;5084169;28;20036;-76
2023/02/21 05:08:28;;;;;;;223.88;52.55;;;;;;;6.03;100.00;101842.06;5081011;28;20468;-75
2023/02/21 05:10:53;;;;;;;214.57;53.08;;;;;;;6.02;100.00;101840.25;5083516;28;20078;-75
2023/02/21 05:13:19;;;;;;;234.25;52.78;;;;;;;6.02;100.00;101845.50;5082319;28;20483;-76
2023/02/21 05:15:45;;;;;;;218.90;52.40;;;;;;;6.02;100.00;101849.88;5081812;28;20032;-77
2023/02/21 05:18:10;;;;;;;212.32;51.88;;;;;;;6.02;100.00;101853.38;5083603;28;20025;-75
2023/02/21 05:20:35;;;;;;;255.25;55.55;;;;;;;6.00;100.00;101848.91;5080568;28;20062;-79
2023/02/21 05:23:01;;;;;;;257.48;54.60;;;;;;;6.00;100.00;101848.91;5080807;28;20028;-77
2023/02/21 05:25:26;;;;;;;259.60;55.38;;;;;;;6.00;100.00;101848.91;5083280;28;20042;-82
2023/02/21 05:27:53;;;;;;;237.55;52.75;;;;;;;6.00;100.00;101856.78;5081741;28;20142;-78
2023/02/21 05:30:22;;;;;;;244.10;54.35;;;;;;;6.01;100.00;101850.69;5082421;28;20047;-80
2023/02/21 05:32:48;;;;;;;265.92;53.22;;;;;;;6.00;100.00;101851.53;5082559;28;20492;-79
2023/02/21 05:35:15;;;;;;;255.70;51.95;;;;;;;5.99;100.00;101858.53;5081508;28;20104;-79
2023/02/21 05:37:40;;;;;;;266.98;54.08;;;;;;;5.99;100.00;101863.78;5083381;28;20065;-77
2023/02/21 05:40:06;;;;;;;267.15;54.92;;;;;;;6.00;100.00;101854.16;5080275;28;20064;-81
2023/02/21 05:42:32;;;;;;;294.75;55.28;;;;;;;5.98;100.00;101861.97;5080398;28;20046;-75
2023/02/21 05:44:58;;;;;;;298.15;55.08;;;;;;;5.97;100.00;101862.81;5083861;28;20107;-76
2023/02/21 05:47:23;;;;;;;226.80;52.75;;;;;;;5.96;100.00;101853.13;5085131;28;20036;-79
2023/02/21 05:49:49;;;;;;;255.88;52.30;;;;;;;5.98;100.00;101861.97;5085759;28;20036;-76
2023/02/21 05:52:16;;;;;;;272.85;54.83;;;;;;;5.94;100.00;101855.69;5086624;28;20024;-81
2023/02/21 05:54:42;;;;;;;277.20;56.15;;;;;;;5.97;100.00;101861.88;5084719;28;20035;-76
2023/02/21 05:57:07;;;;;;;269.80;53.05;;;;;;;5.98;100.00;101866.34;5087237;28;20028;-76
2023/02/21 05:59:33;;;;;;;283.83;54.47;;;;;;;5.97;100.00;101864.50;5084087;28;20418;-75
2023/02/21 06:01:58;;;;;;;301.73;53.88;;;;;;;5.97;100.00;101867.13;5085296;28;20085;-75
2023/02/21 06:04:24;;;;;;;297.73;54.25;;;;;;;5.97;100.00;101861.88;5084856;28;20020;-75
2023/02/21 06:06:49;;;;;;;239.40;52.63;;;;;;;5.98;100.00;101863.72;5085661;28;20029;-75
2023/02/21 06:09:17;;;;;;;252.15;51.95;;;;;;;5.96;100.00;101863.63;5086060;28;20540;-76
2023/02/21 06:11:43;;;;;;;244.23;50.22;;;;;;;5.95;100.00;101869.69;5084535;28;20032;-79
2023/02/21 06:14:16;;;;;;;245.25;49.85;;;;;;;5.94;100.00;101868.81;5086989;28;20024;-78
2023/02/21 06:16:41;;;;;;;240.98;51.08;;;;;;;5.94;100.00;101868.81;5084480;28;20030;-76
2023/02/21 06:19:08;;;;;;;243.52;50.13;;;;;;;5.95;100.00;101872.31;5087012;28;20016;-81
2023/02/21 06:21:37;;;;;;;253.35;50.85;;;;;;;5.96;100.00;101875.84;5083783;28;20086;-79
2023/02/21 06:24:03;;;;;;;213.07;45.55;;;;;;;5.95;100.00;101880.19;5083580;28;20063;-79
2023/02/21 06:26:29;;;;;;;224.18;48.53;;;;;;;5.96;100.00;101867.97;5086449;28;20032;-79
2023/02/21 06:28:54;;;;;;;192.65;44.55;;;;;;;5.94;100.00;101860.94;5084503;28;20024;-79
2023/02/21 06:31:20;;;;;;;193.55;46.03;;;;;;;5.93;100.00;101864.38;5085162;28;20533;-79
2023/02/21 06:33:47;;;;;;;186.00;45.40;;;;;;;5.93;100.00;101877.50;5085538;28;20372;-78
2023/02/21 06:36:16;;;;;;;198.13;44.83;;;;;;;5.93;100.00;101874.00;5084507;28;20032;-79
2023/02/21 06:38:50;;;;;;;187.38;44.33;;;;;;;5.91;100.00;101863.44;5085865;28;20078;-79
2023/02/21 06:41:23;;;;;;;172.60;42.90;;;;;;;5.93;100.00;101872.25;5084312;28;20029;-79
2023/02/21 06:43:49;;;;;;;190.85;43.83;;;;;;;5.94;100.00;101875.75;5084867;28;20027;-79
2023/02/21 06:46:16;;;;;;;177.85;43.35;;;;;;;5.91;100.00;101873.94;5084369;28;20111;-79
2023/02/21 06:48:41;;;;;;;139.68;37.92;;;;;;;5.90;100.00;101872.13;5085168;28;20095;-80
2023/02/21 06:51:10;;;;;;;124.45;34.80;;;;;;;5.87;100.00;101872.03;5091924;28;20543;-81
2023/02/21 06:53:38;;;;;;;119.65;35.78;;;;;;;5.86;100.00;101869.34;5093411;28;20548;-81
2023/02/21 06:56:04;;;;;;;107.28;32.75;;;;;;;5.84;100.00;101869.28;5093840;28;20413;-80
2023/02/21 06:58:29;;;;;;;98.85;32.55;;;;;;;5.79;100.00;101876.06;5092515;28;20040;-79
2023/02/21 07:00:55;;;;;;;103.30;31.45;;;;;;;5.79;100.00;101868.19;5093870;28;20028;-78
2023/02/21 07:03:20;;;;;;;99.15;30.88;;;;;;;5.79;100.00;101865.56;5092224;28;20410;-77
2023/02/21 07:05:45;;;;;;;94.38;29.48;;;;;;;5.79;100.00;101862.94;5090499;28;20059;-82
2023/02/21 07:08:11;;;;;;;97.65;30.48;;;;;;;5.77;100.00;101875.13;5093292;28;20435;-80
2023/02/21 07:10:36;;;;;;;88.63;28.67;;;;;;;5.75;100.00;101877.69;5093340;28;20024;-75
2023/02/21 07:13:02;;;;;;;99.00;29.60;;;;;;;5.73;100.00;101867.94;5092756;28;20020;-76
2023/02/21 07:15:27;;;;;;;93.57;29.10;;;;;;;5.74;100.00;101869.75;5092688;28;20402;-76
2023/02/21 07:17:52;;;;;;;93.65;29.30;;;;;;;5.74;100.00;101875.00;5093510;28;20413;-75
2023/02/21 07:20:18;;;;;;;100.57;31.33;;;;;;;5.73;100.00;101878.44;5093576;28;20036;-75
2023/02/21 07:22:43;;;;;;;104.20;31.08;;;;;;;5.71;100.00;101874.88;5091676;28;20394;-75
2023/02/21 07:25:14;;;;;;;103.38;29.42;;;;;;;5.73;100.00;101878.44;5091761;28;20058;-76
2023/02/21 07:27:39;;;;;;;103.85;30.08;;;;;;;5.73;100.00;101873.19;5090593;28;20032;-76
2023/02/21 07:30:06;;;;;;;105.00;30.77;;;;;;;5.75;100.00;101871.50;5093213;28;20036;-75
2023/02/21 07:32:31;;;;;;;95.20;29.55;;;;;;;5.72;100.00;101882.81;5093033;28;20059;-76
2023/02/21 07:34:57;;;;;;;97.05;28.95;;;;;;;5.70;100.00;101886.19;5091393;28;20086;-76
2023/02/21 07:37:22;;;;;;;96.70;29.63;;;;;;;5.69;100.00;101879.16;5092984;28;20028;-76
2023/02/21 07:39:48;;;;;;;103.00;30.10;;;;;;;5.71;100.00;101877.50;5093099;28;20363;-74
2023/02/21 07:42:13;;;;;;;96.15;29.13;;;;;;;5.72;100.00;101869.69;5093113;28;20028;-78
2023/02/21 07:44:38;;;;;;;99.38;30.20;;;;;;;5.71;100.00;101877.50;5091971;28;20562;-73
2023/02/21 07:47:04;;;;;;;102.20;29.45;;;;;;;5.70;100.00;101879.22;5092746;28;20032;-76
2023/02/21 07:49:29;;;;;;;96.32;29.23;;;;;;;5.72;100.00;101889.75;5091575;28;20113;-75
2023/02/21 07:51:54;;;;;;;94.82;29.25;;;;;;;5.72;100.00;101880.19;5092512;28;20059;-75
2023/02/21 07:54:20;;;;;;;90.03;28.20;;;;;;;5.72;100.00;101882.81;5093013;28;20425;-75
2023/02/21 07:56:47;;;;;;;99.07;29.75;;;;;;;5.72;100.00;101882.81;5092663;28;20119;-75
2023/02/21 07:59:14;;;;;;;94.45;28.73;;;;;;;5.75;100.00;101879.38;5091732;28;20028;-75
2023/02/21 08:01:39;;;;;;;90.93;27.80;;;;;;;5.75;100.00;101874.13;5092714;28;20032;-76
2023/02/21 08:04:05;;;;;;;98.72;29.35;;;;;;;5.76;100.00;101873.31;5090680;28;20131;-76
2023/02/21 08:06:32;;;;;;;91.35;29.00;;;;;;;5.74;100.00;101877.63;5092595;28;20471;-76
2023/02/21 08:08:57;;;;;;;83.82;27.63;;;;;;;5.73;100.00;101883.69;5092355;28;20032;-75
2023/02/21 08:11:23;;;;;;;79.80;26.95;;;;;;;5.69;100.00;101887.00;5091987;28;20064;-75
2023/02/21 08:13:48;;;;;;;78.22;26.60;;;;;;;5.68;100.00;101879.97;5090708;28;20039;-75
2023/02/21 08:16:13;;;;;;;81.22;26.60;;;;;;;5.69;100.00;101877.41;5092679;28;20024;-76
2023/02/21 08:18:39;;;;;;;66.70;23.98;;;;;;;5.71;100.00;101874.88;5092339;28;20032;-76
2023/02/21 08:21:08;;;;;;;72.63;24.23;;;;;;;5.71;100.00;101881.00;5074098;28;20368;-76
2023/02/21 08:23:33;;;;;;;69.88;24.67;;;;;;;5.73;100.00;101888.94;5084854;28;20032;-76
2023/02/21 08:25:58;;;;;;;65.40;23.48;;;;;;;5.74;100.00;101890.75;5082057;28;20215;-76
2023/02/21 08:28:24;;;;;;;71.03;24.45;;;;;;;5.73;100.00;101888.94;5083810;28;20165;-75
2023/02/21 08:30:49;;;;;;;66.30;23.55;;;;;;;5.70;100.00;101889.69;5087026;28;20035;-75
2023/02/21 08:33:14;;;;;;;63.88;22.50;;;;;;;5.70;100.00;101883.56;5092199;28;20114;-75
2023/02/21 08:35:40;;;;;;;64.35;24.52;;;;;;;5.71;100.00;101864.38;5091683;28;20039;-75
2023/02/21 08:38:05;;;;;;;71.82;25.33;;;;;;;5.69;100.00;101879.16;5092267;28;20035;-78
2023/02/21 08:40:31;;;;;;;65.30;24.73;;;;;;;5.71;100.00;101882.75;5090641;28;20032;-75
2023/02/21 08:42:58;;;;;;;73.72;25.30;;;;;;;5.72;100.00;101888.06;5091835;28;20028;-75
2023/02/21 08:45:25;;;;;;;67.45;25.23;;;;;;;5.74;100.00;101885.50;5091881;28;20386;-75
2023/02/21 08:47:51;;;;;;;66.90;25.05;;;;;;;5.69;100.00;101879.16;5091446;28;20032;-75
2023/02/21 08:50:19;;;;;;;68.22;25.92;;;;;;;5.71;100.00;101882.75;5092340;28;20032;-74
2023/02/21 08:52:45;;;;;;;64.82;25.25;;;;;;;5.72;100.00;101881.88;5091722;28;20103;-75
2023/02/21 08:55:11;;;;;;;66.47;24.40;;;;;;;5.69;100.00;101877.41;5091730;28;20097;-74
2023/02/21 08:57:36;;;;;;;70.03;24.85;;;;;;;5.70;100.00;101873.06;5087774;28;20079;-76
2023/02/21 09:00:05;;;;;;;63.38;24.13;;;;;;;5.73;100.00;101881.06;5090950;28;20581;-75
2023/02/21 09:02:31;;;;;;;69.90;25.08;;;;;;;5.75;100.00;101882.00;5091123;28;20066;-76
2023/02/21 09:04:57;;;;;;;62.25;23.30;;;;;;;5.69;100.00;101876.53;5091784;28;20089;-78
2023/02/21 09:07:23;;;;;;;61.35;22.77;;;;;;;5.73;100.00;101876.69;5090708;28;20024;-76
2023/02/21 09:09:48;;;;;;;63.45;22.98;;;;;;;5.74;100.00;101881.13;5081352;28;20175;-75
2023/02/21 09:12:14;;;;;;;65.55;23.63;;;;;;;5.78;100.00;101869.00;5084282;28;20040;-75
2023/02/21 09:14:41;;;;;;;58.38;22.73;;;;;;;5.80;100.00;101869.97;5083023;28;20024;-75
2023/02/21 09:17:09;;;;;;;57.53;21.80;;;;;;;5.82;100.00;101872.66;5080763;28;20073;-78
2023/02/21 09:19:34;;;;;;;60.10;23.23;;;;;;;5.83;100.00;101869.22;5083652;28;20497;-75
2023/02/21 09:22:03;;;;;;;61.58;22.75;;;;;;;5.88;100.00;101867.66;5085539;28;20032;-75
2023/02/21 09:24:28;;;;;;;57.58;22.35;;;;;;;5.86;100.00;101875.47;5086656;28;20024;-75
2023/02/21 09:27:01;;;;;;;62.75;23.20;;;;;;;5.91;100.00;101871.31;5087070;28;20032;-83
2023/02/21 09:29:32;;;;;;;65.95;23.45;;;;;;;5.90;100.00;101866.91;5086505;28;20025;-78
2023/02/21 09:31:59;;;;;;;63.05;23.27;;;;;;;5.90;100.00;101856.41;5085955;28;20165;-79
2023/02/21 09:34:24;;;;;;;59.67;22.58;;;;;;;5.92;100.00;101857.34;5085971;28;20035;-81
2023/02/21 09:36:50;;;;;;;59.58;22.73;;;;;;;5.92;100.00;101854.72;5087258;28;20386;-76
2023/02/21 09:39:16;;;;;;;60.45;23.30;;;;;;;5.92;100.00;101857.34;5084553;28;20518;-81
2023/02/21 09:41:42;;;;;;;58.95;22.42;;;;;;;5.93;100.00;101846.00;5087779;28;20036;-76
2023/02/21 09:44:14;;;;;;;60.03;22.75;;;;;;;5.98;100.00;101853.22;5084555;28;20103;-81
2023/02/21 09:46:49;;;;;;;63.30;24.90;;;;;;;6.00;100.00;101846.28;5084201;28;20028;-75
2023/02/21 09:49:25;;;;;;;59.50;23.40;;;;;;;6.01;100.00;101851.59;5084154;28;20031;-75
2023/02/21 09:51:52;;;;;;;57.72;22.85;;;;;;;6.00;100.00;101856.78;5086612;28;20070;-83
2023/02/21 09:54:34;;;;;;;57.10;22.92;;;;;;;5.99;100.00;101857.63;5084834;28;20034;-81
2023/02/21 09:57:02;;;;;;;62.03;24.52;;;;;;;6.01;100.00;101861.19;5085516;28;20036;-83
2023/02/21 09:59:33;;;;;;;59.65;23.30;;;;;;;6.03;100.00;101862.16;5085863;28;20029;-80
2023/02/21 10:02:14;;;;;;;55.70;22.83;;;;;;;6.03;100.00;101862.16;5085257;28;20111;-84
2023/02/21 10:04:42;;;;;;;57.53;23.33;;;;;;;6.00;100.00;101865.56;5084052;28;20036;-82
2023/02/21 10:07:14;;;;;;;57.40;23.42;;;;;;;6.01;100.00;101867.34;5087218;28;20063;-83
2023/02/21 10:09:48;;;;;;;55.08;22.10;;;;;;;6.03;100.00;101857.81;5084042;28;20116;-80
2023/02/21 10:12:24;;;;;;;54.70;22.27;;;;;;;6.07;100.00;101859.72;5083647;28;20035;-83
2023/02/21 10:15:17;;;;;;;55.40;22.65;;;;;;;6.06;100.00;101857.94;5084426;28;20111;-82
2023/02/21 10:17:57;;;;;;;55.00;22.58;;;;;;;6.05;100.00;101860.50;5083656;28;20408;-75
2023/02/21 10:20:29;;;;;;;57.38;22.92;;;;;;;6.09;100.00;101865.91;5084671;28;20483;-75
2023/02/21 10:22:55;;;;;;;54.95;23.17;;;;;;;6.11;100.00;101866.84;5085578;28;20055;-75
2023/02/21 10:25:24;;;;;;;54.40;22.30;;;;;;;6.07;100.00;101861.44;5084578;28;20048;-74
2023/02/21 10:27:52;;;;;;;52.35;21.38;;;;;;;6.09;100.00;101862.41;5086266;28;20032;-81
2023/02/21 10:30:31;;;;;;;56.78;22.27;;;;;;;6.15;100.00;101857.38;5083808;28;20032;-80
2023/02/21 10:32:57;;;;;;;54.92;22.42;;;;;;;6.17;100.00;101865.31;5084763;28;20038;-74
2023/02/21 10:35:22;;;;;;;55.10;22.05;;;;;;;6.15;100.00;101862.63;5084781;28;20024;-75
2023/02/21 10:37:53;;;;;;;53.08;21.77;;;;;;;6.17;100.00;101871.47;5083666;28;20374;-80
2023/02/21 10:40:35;;;;;;;52.60;21.30;;;;;;;6.19;100.00;101854.03;5084381;28;20031;-78
2023/02/21 10:43:08;;;;;;;53.00;20.98;;;;;;;6.17;100.00;101854.81;5082996;28;20032;-74
2023/02/21 10:45:36;;;;;;;;;;;;;;;6.20;100.00;101871.56;5083290;28;20166;-74
2023/02/21 10:48:08;;;;;;;48.92;20.27;;;;;;;6.19;100.00;101867.19;5086400;28;20367;-81
2023/02/21 10:51:13;;;;;;;48.20;20.33;;;;;;;6.20;100.00;101860.19;5082822;28;20028;-78
2023/02/21 10:53:44;;;;;;;49.60;20.58;;;;;;;6.15;100.00;101860.00;5083266;28;20104;-75
2023/02/21 10:56:17;;;;;;;44.38;19.42;;;;;;;6.12;100.00;101862.53;5085771;28;20251;-75
2023/02/21 10:58:53;;;;;;;47.72;19.90;;;;;;;6.11;100.00;101865.97;5082529;28;20475;-78
2023/02/21 11:01:25;;;;;;;46.42;19.60;;;;;;;6.20;100.00;101860.19;5084419;28;20031;-76
2023/02/21 11:03:54;;;;;;;47.97;19.70;;;;;;;6.17;100.00;101847.81;5084948;28;20373;-76
2023/02/21 11:06:25;;;;;;;47.67;19.42;;;;;;;6.25;100.00;101853.41;5084229;28;20360;-75
2023/02/21 11:08:50;;;;;;;47.00;19.52;;;;;;;6.34;100.00;101847.59;5084662;28;20032;-75
2023/02/21 11:11:15;;;;;;;46.97;20.05;;;;;;;6.41;100.00;101847.00;5084855;28;20383;-77
2023/02/21 11:13:41;;;;;;;48.45;19.80;;;;;;;6.41;100.00;101850.50;5082168;28;20034;-75
2023/02/21 11:16:09;;;;;;;45.60;19.40;;;;;;;6.44;100.00;101849.72;5085561;28;20154;-75
2023/02/21 11:18:34;;;;;;;44.65;19.58;;;;;;;6.41;100.00;101839.09;5082623;28;20032;-75
2023/02/21 11:21:12;;;;;;;45.08;19.27;;;;;;;6.50;100.00;101842.06;5084471;28;20028;-76
2023/02/21 11:24:01;;;;;;;44.72;19.75;;;;;;;6.49;100.00;101832.38;5079012;28;20024;-81
2023/02/21 11:26:29;;;;;;;44.38;19.05;;;;;;;6.50;100.00;101831.56;5083353;28;20126;-82
2023/02/21 11:29:02;;;;;;;42.13;18.15;;;;;;;6.42;100.00;101826.03;5085243;28;20028;-81
2023/02/21 11:31:31;;;;;;;42.85;17.83;;;;;;;6.51;100.00;101832.44;5083472;28;20102;-78
2023/02/21 11:34:05;;;;;;;43.45;18.00;;;;;;;6.41;100.00;101828.59;5084632;28;20061;-76
2023/02/21 11:36:35;;;;;;;41.78;18.20;;;;;;;6.39;100.00;101825.00;5083660;28;20155;-75
2023/02/21 11:39:13;;;;;;;42.85;18.67;;;;;;;6.33;100.00;101823.03;5084032;28;20035;-75
2023/02/21 11:42:23;;;;;;;42.88;19.05;;;;;;;6.42;100.00;101817.22;5084764;28;20159;-76
2023/02/21 11:45:03;;;;;;;41.28;18.00;;;;;;;6.39;100.00;101814.50;5085055;28;20035;-77
2023/02/21 11:47:38;;;;;;;41.92;17.67;;;;;;;6.42;100.00;101819.88;5083240;28;20020;-75
2023/02/21 11:50:20;;;;;;;39.70;18.15;;;;;;;6.44;100.00;101810.31;5083274;28;20028;-79
2023/02/21 11:52:55;;;;;;;39.45;17.27;;;;;;;6.42;100.00;101804.09;5081811;28;20141;-80
2023/02/21 11:55:23;;;;;;;39.30;17.23;;;;;;;6.40;100.00;101801.41;5082060;28;20104;-75
2023/02/21 11:58:14;;;;;;;37.92;16.92;;;;;;;6.49;100.00;101800.84;5084596;28;20016;-77
2023/02/21 12:00:43;;;;;;;37.22;16.63;;;;;;;6.50;100.00;101797.41;5091332;28;20075;-73
2023/02/21 12:03:20;;;;;;;38.88;16.73;;;;;;;6.57;100.00;101796.78;5092012;28;20407;-76
2023/02/21 12:05:57;;;;;;;35.97;15.98;;;;;;;6.61;100.00;101796.06;5092205;28;20024;-75
2023/02/21 12:08:35;;;;;;;37.63;16.67;;;;;;;6.66;100.00;101797.97;5091154;28;20024;-75
2023/02/21 12:11:28;;;;;;;34.47;15.07;;;;;;;6.65;100.00;101793.53;5092636;28;20020;-75
2023/02/21 12:14:16;;;;;;;33.90;14.60;;;;;;;6.70;100.00;101786.69;5090398;28;20028;-75
2023/02/21 12:16:57;;;;;;;32.42;13.98;;;;;;;6.72;100.00;101783.28;5089662;28;20016;-75
2023/02/21 12:20:00;;;;;;;31.95;13.93;;;;;;;6.77;100.00;101787.00;5092168;28;20036;-76
2023/02/21 12:22:26;;;;;;;33.75;14.88;;;;;;;6.78;100.00;101774.72;5092147;28;20475;-77
2023/02/21 12:25:06;;;;;;;31.50;14.02;;;;;;;6.90;100.00;101779.50;5091884;28;20025;-76
2023/02/21 12:27:44;;;;;;;31.02;13.52;;;;;;;6.88;100.00;101781.22;5092284;28;20040;-76
2023/02/21 12:30:44;;;;;;;29.90;13.10;;;;;;;6.94;100.00;101777.03;5085943;28;20028;-80
2023/02/21 12:33:41;;;;;;;30.35;14.32;;;;;;;7.20;100.00;101777.03;5071857;28;20047;-80
2023/02/21 12:36:19;;;;;;;29.17;12.35;;;;;;;7.32;100.00;101766.94;5083302;28;20029;-78
2023/02/21 12:38:50;;;;;;;27.17;11.60;;;;;;;7.51;100.00;101762.22;5081210;28;20110;-80
2023/02/21 12:41:24;;;;;;;26.02;10.98;;;;;;;7.62;100.00;101760.84;5084592;28;20032;-80
2023/02/21 12:44:13;;;;;;;26.13;10.88;;;;;;;7.63;100.00;101749.47;5081232;28;20036;-80
2023/02/21 12:46:59;;;;;;;24.50;11.00;;;;;;;7.77;100.00;101751.63;5083422;28;20021;-79
2023/02/21 12:49:52;;;;;;;24.20;9.98;;;;;;;7.65;100.00;101749.50;5081751;28;20025;-79
2023/02/21 12:52:23;;;;;;;23.95;9.77;;;;;;;7.68;100.00;101757.50;5080939;28;20050;-78
2023/02/21 12:54:57;;;;;;;23.13;9.40;;;;;;;7.54;100.00;101756.19;5080917;28;20021;-78
2023/02/21 12:57:27;;;;;;;24.80;9.88;;;;;;;7.44;100.00;101750.63;5081094;28;20032;-80
2023/02/21 13:00:16;;;;;;;25.40;10.00;;;;;;;7.49;100.00;101746.41;5083876;28;20031;-80
2023/02/21 13:03:03;;;;;;;24.65;10.07;;;;;;;7.47;100.00;101744.56;5083302;28;20055;-78
2023/02/21 13:05:43;;;;;;;24.20;10.02;;;;;;;7.61;100.00;101740.63;5081788;28;20032;-80
2023/02/21 13:08:19;;;;;;;24.25;10.13;;;;;;;7.60;100.00;101741.47;5081692;28;20107;-81
2023/02/21 13:10:56;;;;;;;24.45;10.07;;;;;;;7.55;100.00;101742.19;5083968;28;20475;-80
2023/02/21 13:13:30;;;;;;;23.83;10.45;;;;;;;7.33;100.00;101738.88;5080967;28;20033;-80
2023/02/21 13:15:58;;;;;;;23.98;10.27;;;;;;;7.32;100.00;101735.38;5083600;28;20490;-80
2023/02/21 13:18:36;;;;;;;25.08;10.00;;;;;;;7.34;100.00;101738.03;5080863;28;20034;-80
2023/02/21 13:21:17;;;;;;;24.38;10.23;;;;;;;7.32;100.00;101730.09;5082657;28;20502;-80
2023/02/21 13:24:21;;;;;;;23.88;9.50;;;;;;;7.37;100.00;101729.31;5083466;28;20054;-81
2023/02/21 13:26:54;;;;;;;;;;;;;;;7.41;100.00;101729.50;5084388;28;20059;-76
2023/02/21 13:29:31;;;;;;;25.02;10.30;;;;;;;7.32;100.00;101726.56;5080551;28;20011;-76
2023/02/21 13:32:05;;;;;;;24.60;10.23;;;;;;;7.26;100.00;101734.25;5081242;28;20020;-76
2023/02/21 13:34:44;;;;;;;25.05;10.63;;;;;;;7.26;100.00;101722.00;5081288;28;20063;-76
2023/02/21 13:37:19;;;;;;;25.83;11.02;;;;;;;7.20;100.00;101718.28;5083183;28;20060;-76